sensor_id;sensor_type;location;lat;lon;timestamp;P1;durP1;ratioP1;P2;durP2;ratioP2
20334;SDS011;10325;51.468;5.804;2023-04-24T00:00:23;0.43;;;0.30;;
20334;SDS011;10325;51.468;5.804;2023-04-24T00:02:56;0.40;;;0.30;;
20334;SDS011;10325;51.468;5.804;2023-04-24T00:05:24;0.40;;;0.40;;
20334;SDS011;10325;51.468;5.804;2023-04-24T00:07:53;0.40;;;0.40;;
20334;SDS011;10325;51.468;5.804;2023-04-24T00:10:25;0.40;;;0.40;;
20334;SDS011;10325;51.468;5.804;2023-04-24T00:12:55;0.70;;;0.50;;
20334;SDS011;10325;51.468;5.804;2023-04-24T00:15:38;0.50;;;0.50;;
20334;SDS011;10325;51.468;5.804;2023-04-24T00:18:09;1.80;;;0.47;;
20334;SDS011;10325;51.468;5.804;2023-04-24T00:20:39;0.57;;;0.50;;
20334;SDS011;10325;51.468;5.804;2023-04-24T00:23:09;1.03;;;0.70;;
20334;SDS011;10325;51.468;5.804;2023-04-24T00:25:39;0.77;;;0.60;;
20334;SDS011;10325;51.468;5.804;2023-04-24T00:28:11;1.53;;;0.60;;
20334;SDS011;10325;51.468;5.804;2023-04-24T00:30:42;0.70;;;0.53;;
20334;SDS011;10325;51.468;5.804;2023-04-24T00:33:13;0.80;;;0.60;;
20334;SDS011;10325;51.468;5.804;2023-04-24T00:35:47;1.50;;;0.80;;
20334;SDS011;10325;51.468;5.804;2023-04-24T00:38:19;1.10;;;0.90;;
20334;SDS011;10325;51.468;5.804;2023-04-24T00:40:48;1.20;;;0.70;;
20334;SDS011;10325;51.468;5.804;2023-04-24T00:43:17;0.60;;;0.60;;
20334;SDS011;10325;51.468;5.804;2023-04-24T00:45:49;0.80;;;0.70;;
20334;SDS011;10325;51.468;5.804;2023-04-24T00:48:17;2.10;;;0.60;;
20334;SDS011;10325;51.468;5.804;2023-04-24T00:50:59;0.80;;;0.60;;
20334;SDS011;10325;51.468;5.804;2023-04-24T00:53:30;0.50;;;0.50;;
20334;SDS011;10325;51.468;5.804;2023-04-24T00:56:00;1.13;;;0.90;;
20334;SDS011;10325;51.468;5.804;2023-04-24T00:58:30;1.07;;;0.70;;
20334;SDS011;10325;51.468;5.804;2023-04-24T01:01:01;0.80;;;0.80;;
20334;SDS011;10325;51.468;5.804;2023-04-24T01:03:34;0.80;;;0.80;;
20334;SDS011;10325;51.468;5.804;2023-04-24T01:06:05;1.00;;;0.90;;
20334;SDS011;10325;51.468;5.804;2023-04-24T01:08:37;1.37;;;0.83;;
20334;SDS011;10325;51.468;5.804;2023-04-24T01:11:11;0.77;;;0.73;;
20334;SDS011;10325;51.468;5.804;2023-04-24T01:13:44;1.20;;;0.80;;
20334;SDS011;10325;51.468;5.804;2023-04-24T01:16:18;1.90;;;0.90;;
20334;SDS011;10325;51.468;5.804;2023-04-24T01:18:49;2.73;;;1.10;;
20334;SDS011;10325;51.468;5.804;2023-04-24T01:21:19;1.47;;;0.70;;
20334;SDS011;10325;51.468;5.804;2023-04-24T01:23:53;1.67;;;0.80;;
20334;SDS011;10325;51.468;5.804;2023-04-24T01:26:25;1.97;;;1.00;;
20334;SDS011;10325;51.468;5.804;2023-04-24T01:28:54;2.53;;;1.13;;
20334;SDS011;10325;51.468;5.804;2023-04-24T01:31:23;1.10;;;0.80;;
20334;SDS011;10325;51.468;5.804;2023-04-24T01:33:54;2.57;;;1.10;;
20334;SDS011;10325;51.468;5.804;2023-04-24T01:36:31;1.40;;;0.77;;
20334;SDS011;10325;51.468;5.804;2023-04-24T01:39:00;1.93;;;1.00;;
20334;SDS011;10325;51.468;5.804;2023-04-24T01:41:29;2.07;;;1.00;;
20334;SDS011;10325;51.468;5.804;2023-04-24T01:43:59;1.23;;;1.13;;
20334;SDS011;10325;51.468;5.804;2023-04-24T01:46:28;1.43;;;1.00;;
20334;SDS011;10325;51.468;5.804;2023-04-24T01:49:02;1.70;;;1.10;;
20334;SDS011;10325;51.468;5.804;2023-04-24T01:51:32;2.20;;;1.37;;
20334;SDS011;10325;51.468;5.804;2023-04-24T01:54:02;2.30;;;1.10;;
20334;SDS011;10325;51.468;5.804;2023-04-24T01:56:33;1.93;;;1.23;;
20334;SDS011;10325;51.468;5.804;2023-04-24T01:59:06;1.70;;;1.30;;
20334;SDS011;10325;51.468;5.804;2023-04-24T02:01:45;2.03;;;1.20;;
20334;SDS011;10325;51.468;5.804;2023-04-24T02:04:14;1.60;;;1.20;;
20334;SDS011;10325;51.468;5.804;2023-04-24T02:06:46;1.70;;;1.17;;
20334;SDS011;10325;51.468;5.804;2023-04-24T02:09:17;2.23;;;1.40;;
20334;SDS011;10325;51.468;5.804;2023-04-24T02:11:47;1.47;;;1.00;;
20334;SDS011;10325;51.468;5.804;2023-04-24T02:14:15;1.27;;;1.17;;
20334;SDS011;10325;51.468;5.804;2023-04-24T02:16:44;2.50;;;1.30;;
20334;SDS011;10325;51.468;5.804;2023-04-24T02:19:13;2.03;;;1.37;;
20334;SDS011;10325;51.468;5.804;2023-04-24T02:21:45;1.67;;;1.10;;
20334;SDS011;10325;51.468;5.804;2023-04-24T02:24:16;1.73;;;1.40;;
20334;SDS011;10325;51.468;5.804;2023-04-24T02:26:45;1.43;;;1.33;;
20334;SDS011;10325;51.468;5.804;2023-04-24T02:29:14;2.30;;;1.50;;
20334;SDS011;10325;51.468;5.804;2023-04-24T02:31:43;2.10;;;1.37;;
20334;SDS011;10325;51.468;5.804;2023-04-24T02:34:17;1.40;;;1.30;;
20334;SDS011;10325;51.468;5.804;2023-04-24T02:36:49;2.40;;;1.50;;
20334;SDS011;10325;51.468;5.804;2023-04-24T02:39:18;1.63;;;1.50;;
20334;SDS011;10325;51.468;5.804;2023-04-24T02:41:51;3.37;;;1.30;;
20334;SDS011;10325;51.468;5.804;2023-04-24T02:44:23;2.50;;;1.60;;
20334;SDS011;10325;51.468;5.804;2023-04-24T02:46:53;1.37;;;1.27;;
20334;SDS011;10325;51.468;5.804;2023-04-24T02:49:25;2.30;;;1.67;;
20334;SDS011;10325;51.468;5.804;2023-04-24T02:51:55;2.13;;;1.53;;
20334;SDS011;10325;51.468;5.804;2023-04-24T02:54:27;1.37;;;1.27;;
20334;SDS011;10325;51.468;5.804;2023-04-24T02:56:55;2.03;;;1.57;;
20334;SDS011;10325;51.468;5.804;2023-04-24T02:59:27;2.57;;;2.00;;
20334;SDS011;10325;51.468;5.804;2023-04-24T03:02:00;2.70;;;1.57;;
20334;SDS011;10325;51.468;5.804;2023-04-24T03:04:31;2.23;;;1.33;;
20334;SDS011;10325;51.468;5.804;2023-04-24T03:07:03;2.00;;;1.63;;
20334;SDS011;10325;51.468;5.804;2023-04-24T03:09:32;2.33;;;1.50;;
20334;SDS011;10325;51.468;5.804;2023-04-24T03:12:00;3.10;;;1.73;;
20334;SDS011;10325;51.468;5.804;2023-04-24T03:14:28;2.67;;;1.57;;
20334;SDS011;10325;51.468;5.804;2023-04-24T03:16:58;1.60;;;1.40;;
20334;SDS011;10325;51.468;5.804;2023-04-24T03:19:31;1.97;;;1.60;;
20334;SDS011;10325;51.468;5.804;2023-04-24T03:22:02;2.07;;;1.70;;
20334;SDS011;10325;51.468;5.804;2023-04-24T03:24:33;1.70;;;1.60;;
20334;SDS011;10325;51.468;5.804;2023-04-24T03:27:04;3.20;;;1.47;;
20334;SDS011;10325;51.468;5.804;2023-04-24T03:29:33;2.80;;;1.87;;
20334;SDS011;10325;51.468;5.804;2023-04-24T03:32:04;2.47;;;1.73;;
20334;SDS011;10325;51.468;5.804;2023-04-24T03:34:34;2.30;;;1.63;;
20334;SDS011;10325;51.468;5.804;2023-04-24T03:37:04;2.13;;;1.80;;
20334;SDS011;10325;51.468;5.804;2023-04-24T03:39:35;1.70;;;1.53;;
20334;SDS011;10325;51.468;5.804;2023-04-24T03:42:04;1.63;;;1.30;;
20334;SDS011;10325;51.468;5.804;2023-04-24T03:44:35;1.67;;;1.53;;
20334;SDS011;10325;51.468;5.804;2023-04-24T03:47:03;1.90;;;1.70;;
20334;SDS011;10325;51.468;5.804;2023-04-24T03:49:36;1.93;;;1.70;;
20334;SDS011;10325;51.468;5.804;2023-04-24T03:52:06;2.23;;;1.53;;
20334;SDS011;10325;51.468;5.804;2023-04-24T03:54:38;3.00;;;2.00;;
20334;SDS011;10325;51.468;5.804;2023-04-24T03:57:06;3.20;;;1.80;;
20334;SDS011;10325;51.468;5.804;2023-04-24T03:59:35;4.10;;;1.90;;
20334;SDS011;10325;51.468;5.804;2023-04-24T04:02:03;2.33;;;1.80;;
20334;SDS011;10325;51.468;5.804;2023-04-24T04:04:35;5.40;;;2.07;;
20334;SDS011;10325;51.468;5.804;2023-04-24T04:07:07;3.40;;;1.93;;
20334;SDS011;10325;51.468;5.804;2023-04-24T04:09:36;2.27;;;1.73;;
20334;SDS011;10325;51.468;5.804;2023-04-24T04:12:07;2.10;;;1.90;;
20334;SDS011;10325;51.468;5.804;2023-04-24T04:14:37;2.17;;;1.80;;
20334;SDS011;10325;51.468;5.804;2023-04-24T04:17:09;2.13;;;1.90;;
20334;SDS011;10325;51.468;5.804;2023-04-24T04:19:39;2.70;;;1.90;;
20334;SDS011;10325;51.468;5.804;2023-04-24T04:22:12;3.50;;;2.20;;
20334;SDS011;10325;51.468;5.804;2023-04-24T04:24:42;2.60;;;1.73;;
20334;SDS011;10325;51.468;5.804;2023-04-24T04:27:23;3.27;;;1.90;;
20334;SDS011;10325;51.468;5.804;2023-04-24T04:29:55;2.87;;;2.00;;
20334;SDS011;10325;51.468;5.804;2023-04-24T04:32:25;4.40;;;1.70;;
20334;SDS011;10325;51.468;5.804;2023-04-24T04:34:56;3.40;;;1.80;;
20334;SDS011;10325;51.468;5.804;2023-04-24T04:38:04;2.53;;;2.13;;
20334;SDS011;10325;51.468;5.804;2023-04-24T04:40:38;2.57;;;1.90;;
20334;SDS011;10325;51.468;5.804;2023-04-24T04:43:23;3.20;;;1.80;;
20334;SDS011;10325;51.468;5.804;2023-04-24T04:45:57;2.47;;;1.80;;
20334;SDS011;10325;51.468;5.804;2023-04-24T04:48:52;4.80;;;2.00;;
20334;SDS011;10325;51.468;5.804;2023-04-24T04:51:26;2.37;;;2.07;;
20334;SDS011;10325;51.468;5.804;2023-04-24T04:53:58;4.10;;;2.10;;
20334;SDS011;10325;51.468;5.804;2023-04-24T04:56:42;3.50;;;1.83;;
20334;SDS011;10325;51.468;5.804;2023-04-24T04:59:15;3.10;;;1.90;;
20334;SDS011;10325;51.468;5.804;2023-04-24T05:01:45;2.03;;;1.60;;
20334;SDS011;10325;51.468;5.804;2023-04-24T05:04:14;3.53;;;2.00;;
20334;SDS011;10325;51.468;5.804;2023-04-24T05:06:45;2.27;;;2.00;;
20334;SDS011;10325;51.468;5.804;2023-04-24T05:09:18;2.80;;;2.10;;
20334;SDS011;10325;51.468;5.804;2023-04-24T05:11:52;2.07;;;1.87;;
20334;SDS011;10325;51.468;5.804;2023-04-24T05:14:20;2.50;;;1.60;;
20334;SDS011;10325;51.468;5.804;2023-04-24T05:16:49;2.57;;;1.80;;
20334;SDS011;10325;51.468;5.804;2023-04-24T05:19:21;1.70;;;1.57;;
20334;SDS011;10325;51.468;5.804;2023-04-24T05:21:52;2.80;;;1.90;;
20334;SDS011;10325;51.468;5.804;2023-04-24T05:24:22;1.90;;;1.70;;
20334;SDS011;10325;51.468;5.804;2023-04-24T05:26:53;3.37;;;1.50;;
20334;SDS011;10325;51.468;5.804;2023-04-24T05:29:23;3.30;;;1.83;;
20334;SDS011;10325;51.468;5.804;2023-04-24T05:31:55;2.87;;;1.80;;
20334;SDS011;10325;51.468;5.804;2023-04-24T05:34:27;2.93;;;1.80;;
20334;SDS011;10325;51.468;5.804;2023-04-24T05:36:57;3.80;;;2.33;;
20334;SDS011;10325;51.468;5.804;2023-04-24T05:39:26;2.83;;;1.80;;
20334;SDS011;10325;51.468;5.804;2023-04-24T05:41:56;3.50;;;1.67;;
20334;SDS011;10325;51.468;5.804;2023-04-24T05:44:27;3.83;;;2.00;;
20334;SDS011;10325;51.468;5.804;2023-04-24T05:46:55;2.80;;;1.90;;
20334;SDS011;10325;51.468;5.804;2023-04-24T05:49:27;4.17;;;1.87;;
20334;SDS011;10325;51.468;5.804;2023-04-24T05:51:58;4.53;;;1.70;;
20334;SDS011;10325;51.468;5.804;2023-04-24T05:54:34;2.03;;;1.80;;
20334;SDS011;10325;51.468;5.804;2023-04-24T05:57:04;4.80;;;2.07;;
20334;SDS011;10325;51.468;5.804;2023-04-24T05:59:37;2.80;;;1.70;;
20334;SDS011;10325;51.468;5.804;2023-04-24T06:02:11;2.40;;;1.77;;
20334;SDS011;10325;51.468;5.804;2023-04-24T06:04:41;3.20;;;1.60;;
20334;SDS011;10325;51.468;5.804;2023-04-24T06:07:12;1.83;;;1.53;;
20334;SDS011;10325;51.468;5.804;2023-04-24T06:09:42;2.37;;;1.70;;
20334;SDS011;10325;51.468;5.804;2023-04-24T06:12:34;2.90;;;1.63;;
20334;SDS011;10325;51.468;5.804;2023-04-24T06:15:12;3.00;;;1.30;;
20334;SDS011;10325;51.468;5.804;2023-04-24T06:17:41;2.00;;;1.37;;
20334;SDS011;10325;51.468;5.804;2023-04-24T06:20:11;2.63;;;1.47;;
20334;SDS011;10325;51.468;5.804;2023-04-24T06:22:43;2.10;;;1.40;;
20334;SDS011;10325;51.468;5.804;2023-04-24T06:25:14;1.53;;;1.10;;
20334;SDS011;10325;51.468;5.804;2023-04-24T06:27:43;2.03;;;1.10;;
20334;SDS011;10325;51.468;5.804;2023-04-24T06:30:10;2.90;;;1.27;;
20334;SDS011;10325;51.468;5.804;2023-04-24T06:32:41;2.70;;;1.50;;
20334;SDS011;10325;51.468;5.804;2023-04-24T06:35:12;1.50;;;1.17;;
20334;SDS011;10325;51.468;5.804;2023-04-24T06:37:44;2.17;;;1.20;;
20334;SDS011;10325;51.468;5.804;2023-04-24T06:40:17;1.80;;;1.00;;
20334;SDS011;10325;51.468;5.804;2023-04-24T06:42:47;1.87;;;1.30;;
20334;SDS011;10325;51.468;5.804;2023-04-24T06:45:19;6.63;;;1.23;;
20334;SDS011;10325;51.468;5.804;2023-04-24T06:47:54;2.80;;;1.10;;
20334;SDS011;10325;51.468;5.804;2023-04-24T06:50:25;2.90;;;1.10;;
20334;SDS011;10325;51.468;5.804;2023-04-24T06:52:57;1.33;;;1.10;;
20334;SDS011;10325;51.468;5.804;2023-04-24T06:55:28;1.50;;;0.70;;
20334;SDS011;10325;51.468;5.804;2023-04-24T06:58:01;1.13;;;0.70;;
20334;SDS011;10325;51.468;5.804;2023-04-24T07:00:33;1.63;;;1.07;;
20334;SDS011;10325;51.468;5.804;2023-04-24T07:03:02;3.43;;;1.50;;
20334;SDS011;10325;51.468;5.804;2023-04-24T07:05:37;2.73;;;1.53;;
20334;SDS011;10325;51.468;5.804;2023-04-24T07:08:10;8.57;;;2.20;;
20334;SDS011;10325;51.468;5.804;2023-04-24T07:10:41;5.77;;;2.10;;
20334;SDS011;10325;51.468;5.804;2023-04-24T07:13:15;11.63;;;2.00;;
20334;SDS011;10325;51.468;5.804;2023-04-24T07:15:45;7.63;;;2.20;;
20334;SDS011;10325;51.468;5.804;2023-04-24T07:18:19;12.30;;;2.20;;
20334;SDS011;10325;51.468;5.804;2023-04-24T07:21:03;11.77;;;2.63;;
20334;SDS011;10325;51.468;5.804;2023-04-24T07:23:35;8.70;;;2.07;;
20334;SDS011;10325;51.468;5.804;2023-04-24T07:26:05;7.07;;;2.10;;
20334;SDS011;10325;51.468;5.804;2023-04-24T07:28:35;6.17;;;2.30;;
20334;SDS011;10325;51.468;5.804;2023-04-24T07:31:05;6.23;;;2.33;;
20334;SDS011;10325;51.468;5.804;2023-04-24T07:33:39;7.03;;;1.77;;
20334;SDS011;10325;51.468;5.804;2023-04-24T07:36:07;5.87;;;2.03;;
20334;SDS011;10325;51.468;5.804;2023-04-24T07:38:49;7.97;;;1.83;;
20334;SDS011;10325;51.468;5.804;2023-04-24T07:41:26;7.87;;;2.17;;
20334;SDS011;10325;51.468;5.804;2023-04-24T07:43:58;6.77;;;2.47;;
20334;SDS011;10325;51.468;5.804;2023-04-24T07:46:29;7.17;;;2.50;;
20334;SDS011;10325;51.468;5.804;2023-04-24T07:49:05;5.57;;;2.30;;
20334;SDS011;10325;51.468;5.804;2023-04-24T07:51:40;3.90;;;2.40;;
20334;SDS011;10325;51.468;5.804;2023-04-24T07:54:11;4.77;;;2.50;;
20334;SDS011;10325;51.468;5.804;2023-04-24T07:56:40;3.50;;;2.50;;
20334;SDS011;10325;51.468;5.804;2023-04-24T07:59:21;3.07;;;2.30;;
20334;SDS011;10325;51.468;5.804;2023-04-24T08:01:52;5.20;;;2.30;;
20334;SDS011;10325;51.468;5.804;2023-04-24T08:04:23;4.87;;;2.50;;
20334;SDS011;10325;51.468;5.804;2023-04-24T08:06:51;5.70;;;2.50;;
20334;SDS011;10325;51.468;5.804;2023-04-24T08:09:22;3.47;;;2.43;;
20334;SDS011;10325;51.468;5.804;2023-04-24T08:11:54;4.47;;;2.53;;
20334;SDS011;10325;51.468;5.804;2023-04-24T08:14:24;4.73;;;2.20;;
20334;SDS011;10325;51.468;5.804;2023-04-24T08:16:54;2.87;;;2.00;;
20334;SDS011;10325;51.468;5.804;2023-04-24T08:19:24;3.87;;;2.00;;
20334;SDS011;10325;51.468;5.804;2023-04-24T08:21:58;5.33;;;2.30;;
20334;SDS011;10325;51.468;5.804;2023-04-24T08:24:28;4.43;;;1.90;;
20334;SDS011;10325;51.468;5.804;2023-04-24T08:26:58;3.30;;;2.00;;
20334;SDS011;10325;51.468;5.804;2023-04-24T08:29:31;4.80;;;2.20;;
20334;SDS011;10325;51.468;5.804;2023-04-24T08:32:05;4.20;;;2.00;;
20334;SDS011;10325;51.468;5.804;2023-04-24T08:34:37;3.23;;;2.10;;
20334;SDS011;10325;51.468;5.804;2023-04-24T08:37:06;4.33;;;2.40;;
20334;SDS011;10325;51.468;5.804;2023-04-24T08:39:37;3.57;;;1.73;;
20334;SDS011;10325;51.468;5.804;2023-04-24T08:42:09;3.93;;;2.00;;
20334;SDS011;10325;51.468;5.804;2023-04-24T08:44:42;5.57;;;2.20;;
20334;SDS011;10325;51.468;5.804;2023-04-24T08:47:17;3.43;;;2.00;;
20334;SDS011;10325;51.468;5.804;2023-04-24T08:49:49;3.13;;;2.00;;
20334;SDS011;10325;51.468;5.804;2023-04-24T08:52:18;3.60;;;1.90;;
20334;SDS011;10325;51.468;5.804;2023-04-24T08:54:51;4.53;;;1.87;;
20334;SDS011;10325;51.468;5.804;2023-04-24T08:57:23;5.90;;;2.30;;
20334;SDS011;10325;51.468;5.804;2023-04-24T08:59:58;4.40;;;2.10;;
20334;SDS011;10325;51.468;5.804;2023-04-24T09:02:31;2.30;;;1.60;;
20334;SDS011;10325;51.468;5.804;2023-04-24T09:05:05;4.53;;;2.20;;
20334;SDS011;10325;51.468;5.804;2023-04-24T09:07:37;2.73;;;2.00;;
20334;SDS011;10325;51.468;5.804;2023-04-24T09:10:12;3.40;;;2.10;;
20334;SDS011;10325;51.468;5.804;2023-04-24T09:12:46;4.70;;;1.80;;
20334;SDS011;10325;51.468;5.804;2023-04-24T09:15:20;3.17;;;1.67;;
20334;SDS011;10325;51.468;5.804;2023-04-24T09:17:52;4.63;;;2.00;;
20334;SDS011;10325;51.468;5.804;2023-04-24T09:20:24;4.17;;;1.80;;
20334;SDS011;10325;51.468;5.804;2023-04-24T09:22:58;2.90;;;1.80;;
20334;SDS011;10325;51.468;5.804;2023-04-24T09:25:33;5.60;;;1.97;;
20334;SDS011;10325;51.468;5.804;2023-04-24T09:28:11;5.77;;;2.17;;
20334;SDS011;10325;51.468;5.804;2023-04-24T09:30:41;4.63;;;1.63;;
20334;SDS011;10325;51.468;5.804;2023-04-24T09:33:14;6.13;;;1.97;;
20334;SDS011;10325;51.468;5.804;2023-04-24T09:35:51;2.63;;;1.53;;
20334;SDS011;10325;51.468;5.804;2023-04-24T09:38:33;3.63;;;1.70;;
20334;SDS011;10325;51.468;5.804;2023-04-24T09:41:08;5.33;;;1.93;;
20334;SDS011;10325;51.468;5.804;2023-04-24T09:43:42;8.30;;;1.73;;
20334;SDS011;10325;51.468;5.804;2023-04-24T09:46:15;8.50;;;2.17;;
20334;SDS011;10325;51.468;5.804;2023-04-24T09:48:47;4.87;;;1.90;;
20334;SDS011;10325;51.468;5.804;2023-04-24T09:51:17;3.67;;;1.73;;
20334;SDS011;10325;51.468;5.804;2023-04-24T09:54:15;3.77;;;1.63;;
20334;SDS011;10325;51.468;5.804;2023-04-24T09:56:51;3.93;;;1.80;;
20334;SDS011;10325;51.468;5.804;2023-04-24T09:59:19;8.60;;;2.30;;
20334;SDS011;10325;51.468;5.804;2023-04-24T10:01:53;5.83;;;2.20;;
20334;SDS011;10325;51.468;5.804;2023-04-24T10:06:53;4.20;;;1.60;;
20334;SDS011;10325;51.468;5.804;2023-04-24T10:09:27;4.67;;;1.87;;
20334;SDS011;10325;51.468;5.804;2023-04-24T10:11:58;6.03;;;2.23;;
20334;SDS011;10325;51.468;5.804;2023-04-24T10:14:32;7.63;;;1.70;;
20334;SDS011;10325;51.468;5.804;2023-04-24T10:17:01;4.60;;;2.13;;
20334;SDS011;10325;51.468;5.804;2023-04-24T10:19:34;5.73;;;2.47;;
20334;SDS011;10325;51.468;5.804;2023-04-24T10:22:08;4.50;;;2.23;;
20334;SDS011;10325;51.468;5.804;2023-04-24T10:24:39;3.53;;;1.70;;
20334;SDS011;10325;51.468;5.804;2023-04-24T10:27:12;2.70;;;1.50;;
20334;SDS011;10325;51.468;5.804;2023-04-24T10:29:45;3.53;;;1.90;;
20334;SDS011;10325;51.468;5.804;2023-04-24T10:32:19;5.30;;;1.90;;
20334;SDS011;10325;51.468;5.804;2023-04-24T10:34:51;6.03;;;1.90;;
20334;SDS011;10325;51.468;5.804;2023-04-24T10:37:46;4.90;;;1.70;;
20334;SDS011;10325;51.468;5.804;2023-04-24T10:40:25;3.70;;;1.77;;
20334;SDS011;10325;51.468;5.804;2023-04-24T10:43:06;7.10;;;1.63;;
20334;SDS011;10325;51.468;5.804;2023-04-24T10:46:04;5.37;;;1.90;;
20334;SDS011;10325;51.468;5.804;2023-04-24T10:48:44;2.97;;;1.40;;
20334;SDS011;10325;51.468;5.804;2023-04-24T10:51:43;8.23;;;1.63;;
20334;SDS011;10325;51.468;5.804;2023-04-24T11:02:50;3.27;;;1.67;;
20334;SDS011;10325;51.468;5.804;2023-04-24T11:05:49;2.70;;;1.30;;
20334;SDS011;10325;51.468;5.804;2023-04-24T11:08:26;2.97;;;1.13;;
20334;SDS011;10325;51.468;5.804;2023-04-24T11:11:11;3.97;;;1.40;;
20334;SDS011;10325;51.468;5.804;2023-04-24T11:21:58;2.40;;;1.10;;
20334;SDS011;10325;51.468;5.804;2023-04-24T11:24:49;6.73;;;1.30;;
20334;SDS011;10325;51.468;5.804;2023-04-24T11:27:23;1.87;;;1.00;;
20334;SDS011;10325;51.468;5.804;2023-04-24T11:30:08;3.20;;;1.13;;
20334;SDS011;10325;51.468;5.804;2023-04-24T11:32:49;2.67;;;1.17;;
20334;SDS011;10325;51.468;5.804;2023-04-24T11:35:23;2.93;;;1.07;;
20334;SDS011;10325;51.468;5.804;2023-04-24T11:37:57;2.83;;;1.00;;
20334;SDS011;10325;51.468;5.804;2023-04-24T11:40:34;2.47;;;1.00;;
20334;SDS011;10325;51.468;5.804;2023-04-24T11:43:06;4.03;;;1.00;;
20334;SDS011;10325;51.468;5.804;2023-04-24T11:45:38;3.97;;;1.00;;
20334;SDS011;10325;51.468;5.804;2023-04-24T11:48:21;3.17;;;0.97;;
20334;SDS011;10325;51.468;5.804;2023-04-24T11:50:52;3.03;;;1.17;;
20334;SDS011;10325;51.468;5.804;2023-04-24T11:53:23;2.73;;;1.20;;
20334;SDS011;10325;51.468;5.804;2023-04-24T11:55:56;2.83;;;1.03;;
20334;SDS011;10325;51.468;5.804;2023-04-24T11:58:34;3.20;;;0.93;;
20334;SDS011;10325;51.468;5.804;2023-04-24T12:01:11;3.53;;;1.17;;
20334;SDS011;10325;51.468;5.804;2023-04-24T12:03:41;2.90;;;1.10;;
20334;SDS011;10325;51.468;5.804;2023-04-24T12:06:17;1.83;;;0.93;;
20334;SDS011;10325;51.468;5.804;2023-04-24T12:08:49;6.97;;;1.60;;
20334;SDS011;10325;51.468;5.804;2023-04-24T12:11:20;2.73;;;1.07;;
20334;SDS011;10325;51.468;5.804;2023-04-24T12:13:48;3.23;;;0.93;;
20334;SDS011;10325;51.468;5.804;2023-04-24T12:16:20;2.20;;;1.03;;
20334;SDS011;10325;51.468;5.804;2023-04-24T12:18:52;2.20;;;1.10;;
20334;SDS011;10325;51.468;5.804;2023-04-24T12:21:23;2.27;;;0.83;;
20334;SDS011;10325;51.468;5.804;2023-04-24T12:23:57;2.60;;;0.90;;
20334;SDS011;10325;51.468;5.804;2023-04-24T12:26:28;2.63;;;0.80;;
20334;SDS011;10325;51.468;5.804;2023-04-24T12:29:07;3.10;;;0.90;;
20334;SDS011;10325;51.468;5.804;2023-04-24T12:31:40;2.50;;;0.90;;
20334;SDS011;10325;51.468;5.804;2023-04-24T12:34:20;0.63;;;0.60;;
20334;SDS011;10325;51.468;5.804;2023-04-24T12:36:49;2.57;;;0.80;;
20334;SDS011;10325;51.468;5.804;2023-04-24T12:39:20;2.00;;;1.00;;
20334;SDS011;10325;51.468;5.804;2023-04-24T12:41:57;1.80;;;0.97;;
20334;SDS011;10325;51.468;5.804;2023-04-24T12:44:42;1.60;;;0.70;;
20334;SDS011;10325;51.468;5.804;2023-04-24T12:47:16;1.63;;;0.70;;
20334;SDS011;10325;51.468;5.804;2023-04-24T12:49:48;1.60;;;0.67;;
20334;SDS011;10325;51.468;5.804;2023-04-24T12:52:18;2.33;;;0.60;;
20334;SDS011;10325;51.468;5.804;2023-04-24T12:54:48;0.80;;;0.50;;
20334;SDS011;10325;51.468;5.804;2023-04-24T12:57:18;3.13;;;0.90;;
20334;SDS011;10325;51.468;5.804;2023-04-24T12:59:47;0.67;;;0.47;;
20334;SDS011;10325;51.468;5.804;2023-04-24T13:02:17;2.53;;;1.00;;
20334;SDS011;10325;51.468;5.804;2023-04-24T13:04:50;1.93;;;0.80;;
20334;SDS011;10325;51.468;5.804;2023-04-24T13:07:22;2.63;;;0.87;;
20334;SDS011;10325;51.468;5.804;2023-04-24T13:09:54;1.77;;;0.73;;
20334;SDS011;10325;51.468;5.804;2023-04-24T13:12:27;1.30;;;0.70;;
20334;SDS011;10325;51.468;5.804;2023-04-24T13:14:58;1.77;;;1.00;;
20334;SDS011;10325;51.468;5.804;2023-04-24T13:17:28;1.67;;;0.60;;
20334;SDS011;10325;51.468;5.804;2023-04-24T13:19:58;2.43;;;0.90;;
20334;SDS011;10325;51.468;5.804;2023-04-24T13:22:26;1.73;;;0.67;;
20334;SDS011;10325;51.468;5.804;2023-04-24T13:24:58;1.33;;;0.50;;
20334;SDS011;10325;51.468;5.804;2023-04-24T13:27:31;5.03;;;0.90;;
20334;SDS011;10325;51.468;5.804;2023-04-24T13:30:03;2.30;;;0.53;;
20334;SDS011;10325;51.468;5.804;2023-04-24T13:32:34;1.03;;;0.60;;
20334;SDS011;10325;51.468;5.804;2023-04-24T13:35:15;2.93;;;0.80;;
20334;SDS011;10325;51.468;5.804;2023-04-24T13:37:48;2.80;;;0.87;;
20334;SDS011;10325;51.468;5.804;2023-04-24T13:40:16;1.50;;;0.70;;
20334;SDS011;10325;51.468;5.804;2023-04-24T13:42:46;1.57;;;0.60;;
20334;SDS011;10325;51.468;5.804;2023-04-24T13:45:15;1.60;;;0.70;;
20334;SDS011;10325;51.468;5.804;2023-04-24T13:47:50;1.83;;;0.60;;
20334;SDS011;10325;51.468;5.804;2023-04-24T13:50:24;1.43;;;0.77;;
20334;SDS011;10325;51.468;5.804;2023-04-24T13:52:54;1.50;;;0.77;;
20334;SDS011;10325;51.468;5.804;2023-04-24T13:55:28;1.67;;;0.63;;
20334;SDS011;10325;51.468;5.804;2023-04-24T13:58:01;0.77;;;0.50;;
20334;SDS011;10325;51.468;5.804;2023-04-24T14:00:33;4.07;;;0.90;;
20334;SDS011;10325;51.468;5.804;2023-04-24T14:03:05;2.80;;;0.70;;
20334;SDS011;10325;51.468;5.804;2023-04-24T14:05:34;3.30;;;0.90;;
20334;SDS011;10325;51.468;5.804;2023-04-24T14:08:04;1.67;;;0.80;;
20334;SDS011;10325;51.468;5.804;2023-04-24T14:10:36;1.77;;;0.80;;
20334;SDS011;10325;51.468;5.804;2023-04-24T14:13:19;2.07;;;0.60;;
20334;SDS011;10325;51.468;5.804;2023-04-24T14:15:54;2.80;;;0.83;;
20334;SDS011;10325;51.468;5.804;2023-04-24T14:18:27;1.00;;;0.53;;
20334;SDS011;10325;51.468;5.804;2023-04-24T14:21:01;0.73;;;0.60;;
20334;SDS011;10325;51.468;5.804;2023-04-24T14:23:34;1.67;;;0.70;;
20334;SDS011;10325;51.468;5.804;2023-04-24T14:26:04;1.10;;;0.60;;
20334;SDS011;10325;51.468;5.804;2023-04-24T14:28:35;2.63;;;0.50;;
20334;SDS011;10325;51.468;5.804;2023-04-24T14:31:05;1.27;;;0.67;;
20334;SDS011;10325;51.468;5.804;2023-04-24T14:33:38;1.70;;;0.60;;
20334;SDS011;10325;51.468;5.804;2023-04-24T14:36:09;0.83;;;0.43;;
20334;SDS011;10325;51.468;5.804;2023-04-24T14:38:36;3.93;;;1.27;;
20334;SDS011;10325;51.468;5.804;2023-04-24T14:41:06;4.63;;;0.90;;
20334;SDS011;10325;51.468;5.804;2023-04-24T14:43:41;1.90;;;0.73;;
20334;SDS011;10325;51.468;5.804;2023-04-24T14:46:15;1.37;;;0.67;;
20334;SDS011;10325;51.468;5.804;2023-04-24T14:48:47;2.77;;;0.70;;
20334;SDS011;10325;51.468;5.804;2023-04-24T14:51:17;4.60;;;0.70;;
20334;SDS011;10325;51.468;5.804;2023-04-24T14:53:45;1.47;;;0.70;;
20334;SDS011;10325;51.468;5.804;2023-04-24T14:56:16;1.47;;;0.70;;
20334;SDS011;10325;51.468;5.804;2023-04-24T14:58:52;1.83;;;0.80;;
20334;SDS011;10325;51.468;5.804;2023-04-24T15:01:23;1.60;;;0.87;;
20334;SDS011;10325;51.468;5.804;2023-04-24T15:04:06;1.97;;;0.70;;
20334;SDS011;10325;51.468;5.804;2023-04-24T15:06:35;1.93;;;0.80;;
20334;SDS011;10325;51.468;5.804;2023-04-24T15:09:07;2.57;;;0.90;;
20334;SDS011;10325;51.468;5.804;2023-04-24T15:11:37;1.73;;;0.70;;
20334;SDS011;10325;51.468;5.804;2023-04-24T15:14:04;1.10;;;0.70;;
20334;SDS011;10325;51.468;5.804;2023-04-24T15:16:38;3.57;;;1.20;;
20334;SDS011;10325;51.468;5.804;2023-04-24T15:19:07;3.73;;;1.00;;
20334;SDS011;10325;51.468;5.804;2023-04-24T15:21:37;0.90;;;0.77;;
20334;SDS011;10325;51.468;5.804;2023-04-24T15:24:12;1.77;;;0.87;;
20334;SDS011;10325;51.468;5.804;2023-04-24T15:26:41;1.33;;;0.70;;
20334;SDS011;10325;51.468;5.804;2023-04-24T15:29:11;1.10;;;0.70;;
20334;SDS011;10325;51.468;5.804;2023-04-24T15:31:41;3.97;;;1.00;;
20334;SDS011;10325;51.468;5.804;2023-04-24T15:34:13;1.80;;;0.80;;
20334;SDS011;10325;51.468;5.804;2023-04-24T15:36:43;2.73;;;0.67;;
20334;SDS011;10325;51.468;5.804;2023-04-24T15:39:14;1.47;;;0.90;;